createdAt,value
2022-12-24T00:09:40.764Z,9.97
2022-12-24T00:19:43.261Z,6.13
2022-12-24T00:29:44.926Z,7.43
2022-12-24T00:39:46.661Z,7.57
2022-12-24T00:56:03.076Z,11.20
2022-12-24T01:06:10.238Z,12.43
2022-12-24T01:16:18.319Z,6.90
2022-12-24T01:26:20.007Z,10.93
2022-12-24T01:36:21.668Z,7.57
2022-12-24T01:46:23.284Z,15.40
2022-12-24T01:56:26.253Z,8.07
2022-12-24T02:06:27.909Z,10.20
2022-12-24T02:17:00.490Z,8.33
2022-12-24T02:27:17.261Z,8.67
2022-12-24T02:37:26.264Z,7.77
2022-12-24T02:47:31.005Z,10.43
2022-12-24T02:57:44.159Z,10.80
2022-12-24T03:08:03.603Z,16.40
2022-12-24T03:18:08.529Z,12.90
2022-12-24T03:28:14.865Z,7.93
2022-12-24T03:38:16.534Z,8.77
2022-12-24T03:48:18.201Z,10.93
2022-12-24T03:58:19.858Z,11.13
2022-12-24T04:08:21.512Z,7.73
2022-12-24T04:18:23.172Z,14.53
2022-12-24T04:28:24.823Z,10.13
2022-12-24T04:38:26.916Z,5.87
2022-12-24T04:48:28.571Z,8.83
2022-12-24T04:58:30.478Z,10.13
2022-12-24T05:08:32.337Z,9.33
2022-12-24T05:18:34.106Z,10.37
2022-12-24T05:28:35.859Z,9.50
2022-12-24T05:38:37.757Z,11.50
2022-12-24T05:48:39.430Z,10.07
2022-12-24T05:58:42.070Z,9.53
2022-12-24T06:08:43.744Z,13.43
2022-12-24T06:18:46.188Z,13.00
2022-12-24T06:28:49.147Z,13.07
2022-12-24T06:38:51.801Z,11.17
2022-12-24T06:48:55.050Z,19.80
2022-12-24T06:59:00.202Z,11.87
2022-12-24T07:09:06.617Z,12.27
2022-12-24T07:19:08.282Z,8.30
2022-12-24T07:29:10.337Z,16.27
2022-12-24T07:39:12.441Z,17.20
2022-12-24T07:49:14.097Z,9.97
2022-12-24T07:59:15.822Z,10.50
2022-12-24T08:09:17.511Z,14.27
2022-12-24T08:19:19.393Z,12.80
2022-12-24T08:29:21.042Z,11.27
2022-12-24T08:39:23.179Z,15.10
2022-12-24T08:49:24.812Z,12.17
2022-12-24T08:59:26.469Z,14.20
2022-12-24T09:09:32.728Z,15.93
2022-12-24T09:19:39.322Z,14.93
2022-12-24T09:29:40.949Z,16.50
2022-12-24T09:39:43.030Z,21.33
2022-12-24T09:49:49.642Z,17.00
2022-12-24T09:59:51.961Z,15.87
2022-12-24T10:10:25.656Z,13.63
2022-12-24T10:20:59.016Z,14.83
2022-12-24T10:31:05.590Z,17.33
2022-12-24T10:41:08.502Z,21.37
2022-12-24T10:51:21.308Z,13.33
2022-12-24T11:01:46.896Z,18.63
2022-12-24T11:11:49.349Z,20.23
2022-12-24T11:21:59.810Z,34.77
2022-12-24T11:32:18.627Z,14.03
2022-12-24T11:42:33.281Z,19.90
2022-12-24T11:52:35.615Z,11.50
2022-12-24T12:02:39.826Z,13.20
2022-12-24T12:12:45.598Z,11.90
2022-12-24T12:23:00.684Z,24.37
2022-12-24T12:33:51.658Z,17.13
2022-12-24T12:44:20.959Z,15.80
2022-12-24T12:54:34.542Z,16.60
2022-12-24T13:12:43.992Z,20.00
2022-12-24T13:22:56.203Z,16.17
2022-12-24T13:32:57.874Z,16.90
2022-12-24T13:42:59.578Z,14.43
2022-12-24T13:53:01.719Z,15.33
2022-12-24T14:03:35.712Z,18.00
2022-12-24T14:13:40.512Z,16.73
2022-12-24T14:24:04.309Z,15.97
2022-12-24T14:34:13.188Z,17.63
2022-12-24T14:44:29.608Z,11.83
2022-12-24T14:54:41.919Z,9.83
2022-12-24T15:04:43.553Z,15.77
2022-12-24T15:14:45.939Z,17.27
2022-12-24T15:24:48.097Z,17.70
2022-12-24T15:34:55.070Z,16.60
2022-12-24T15:45:03.792Z,11.47
2022-12-24T15:55:05.801Z,17.63
2022-12-24T16:05:26.154Z,15.43
2022-12-24T16:15:27.961Z,14.17
2022-12-24T16:25:30.200Z,21.30
2022-12-24T16:35:33.483Z,15.80
2022-12-24T16:45:37.228Z,16.53
2022-12-24T16:55:38.912Z,20.67
2022-12-24T17:05:42.389Z,19.33
2022-12-24T17:15:44.026Z,18.80
2022-12-24T17:25:46.497Z,22.93
2022-12-24T17:35:49.209Z,15.97
2022-12-24T17:45:50.849Z,18.37
2022-12-24T17:55:52.478Z,19.17
2022-12-24T18:05:54.226Z,15.03
2022-12-24T18:15:56.312Z,15.90
2022-12-24T18:26:02.482Z,17.40
2022-12-24T18:36:04.938Z,12.07
2022-12-24T18:46:08.594Z,15.37
2022-12-24T18:56:16.671Z,18.60
2022-12-24T19:06:19.366Z,20.77
2022-12-24T19:16:22.187Z,15.60
2022-12-24T19:26:24.568Z,16.93
2022-12-24T19:36:29.070Z,17.23
2022-12-24T19:46:33.001Z,19.70
2022-12-24T19:56:35.298Z,14.17
2022-12-24T20:06:36.981Z,19.07
2022-12-24T20:16:38.804Z,18.83
2022-12-24T20:26:40.513Z,18.57
2022-12-24T20:36:42.639Z,22.20
2022-12-24T20:46:44.337Z,19.33
2022-12-24T20:56:45.941Z,18.30
2022-12-24T21:06:59.683Z,20.03
2022-12-24T21:17:01.433Z,21.33
2022-12-24T21:27:03.164Z,20.87
2022-12-24T21:37:04.895Z,24.23
2022-12-24T21:47:07.873Z,26.73
2022-12-24T21:57:28.806Z,21.87
2022-12-24T22:07:49.180Z,22.30
2022-12-24T22:17:50.855Z,23.07
2022-12-24T22:27:52.498Z,29.23
2022-12-24T22:37:59.630Z,18.00
2022-12-24T22:48:01.895Z,20.33
2022-12-24T22:58:04.294Z,23.27
2022-12-24T23:08:07.303Z,26.90
2022-12-24T23:18:09.495Z,20.20
2022-12-24T23:28:11.205Z,23.90
2022-12-24T23:38:12.824Z,27.27
2022-12-24T23:48:15.579Z,18.80
2022-12-24T23:58:17.212Z,19.10
